DW9593 Weather Reports


Display with metric or nautical units.
time (UTC)temp
F
wind
direction
speed
MPH
gust
MPH
rain 1hr
in
rain 24hr
in
rain mn
in
humidity
%
barometer
mb
20190422165516 74 220 0.0 7.0 0.00 0.00 0.00 27 1013.8
20190422164522 73 230 1.0 7.0 0.00 0.00 0.00 29 1013.6
20190422163521 72 226 2.0 8.0 0.00 0.00 0.00 31 1013.9
20190422162521 72 224 3.0 7.0 0.00 0.00 0.00 30 1013.9
20190422161521 71 249 1.0 7.0 0.00 0.00 0.00 31 1013.9
20190422160521 71 234 2.0 5.0 0.00 0.00 0.00 33 1014.0
20190422155516 70 253 1.0 8.0 0.00 0.00 0.00 34 1013.9
20190422154516 70 273 1.0 5.0 0.00 0.00 0.00 37 1014.1
20190422153521 69 277 0.0 5.0 0.00 0.00 0.00 35 1013.9
20190422152521 69 178 0.0 1.0 0.00 0.00 0.00 34 1013.7
20190422151521 67 166 0.0 1.0 0.00 0.00 0.00 34 1013.5
20190422150521 66 0.0 0.0 0.00 0.00 0.00 36 1013.5
20190422145521 65 0.0 0.0 0.00 0.00 0.00 37 1013.5
20190422144520 63 0.0 0.0 0.00 0.00 0.00 40 1013.6
20190422143521 62 155 0.0 1.0 0.00 0.00 0.00 43 1013.5
20190422142521 61 155 0.0 1.0 0.00 0.00 0.00 43 1013.4
20190422141521 60 0.0 0.0 0.00 0.00 0.00 44 1013.5
20190422140521 59 0.0 0.0 0.00 0.00 0.00 46 1013.2
20190422135521 58 154 0.0 2.0 0.00 0.00 0.00 46 1013.2
20190422134521 57 155 0.0 1.0 0.00 0.00 0.00 46 1013.1
20190422133516 57 149 0.0 2.0 0.00 0.00 0.00 45 1013.1
20190422132521 56 147 0.0 1.0 0.00 0.00 0.00 45 1012.9
20190422131521 55 147 0.0 1.0 0.00 0.00 0.00 46 1012.9
20190422130521 55 141 0.0 1.0 0.00 0.00 0.00 46 1012.7
20190422125521 55 0.0 1.0 0.00 0.00 0.00 46 1012.7
20190422124521 55 0.0 0.0 0.00 0.00 0.00 45 1012.5
20190422123516 55 0.0 0.0 0.00 0.00 0.00 44 1012.6
20190422122516 56 0.0 0.0 0.00 0.00 0.00 43 1012.6
20190422121521 56 0.0 0.0 0.00 0.00 0.00 43 1012.5
20190422120521 56 0.0 1.0 0.00 0.00 0.00 43 1012.4
20190422115521 56 0.0 0.0 0.00 0.00 0.00 42 1012.5
20190422114521 56 0.0 0.0 0.00 0.00 0.00 41 1012.5
20190422113521 56 140 0.0 1.0 0.00 0.00 0.00 41 1012.5
20190422112516 56 140 0.0 1.0 0.00 0.00 0.00 42 1012.5
20190422111515 56 0.0 0.0 0.00 0.00 0.00 42 1012.5
20190422110521 56 0.0 0.0 0.00 0.00 0.00 42 1012.5
20190422105521 56 140 0.0 1.0 0.00 0.00 0.00 42 1012.6
20190422104521 56 140 0.0 1.0 0.00 0.00 0.00 41 1012.7
20190422103521 56 140 0.0 1.0 0.00 0.00 0.00 41 1013.0
20190422102521 57 0.0 1.0 0.00 0.00 0.00 41 1013.0
20190422101516 57 0.0 1.0 0.00 0.00 0.00 41 1013.0
20190422100522 57 0.0 0.0 0.00 0.00 0.00 41 1013.0
20190422095521 57 0.0 0.0 0.00 0.00 0.00 40 1013.0
20190422094521 57 0.0 0.0 0.00 0.00 0.00 40 1013.1
20190422093521 58 0.0 0.0 0.00 0.00 0.00 39 1013.1
20190422092521 58 0.0 0.0 0.00 0.00 0.00 39 1013.3
20190422090516 59 0.0 0.0 0.00 0.00 0.00 38 1013.4
20190422085521 60 0.0 0.0 0.00 0.00 0.00 37 1013.4
20190422084521 60 0.0 0.0 0.00 0.00 0.00 36 1013.6
20190422083521 61 0.0 0.0 0.00 0.00 0.00 36 1013.7
20190422082521 61 0.0 0.0 0.00 0.00 0.00 35 1014.0
20190422081521 62 140 0.0 1.0 0.00 0.00 0.00 35 1014.1
20190422080521 62 140 0.0 1.0 0.00 0.00 0.00 35 1014.0
20190422075515 62 0.0 0.0 0.00 0.00 0.00 35 1014.2
20190422074520 63 0.0 0.0 0.00 0.00 0.00 33 1014.1
20190422073521 63 0.0 1.0 0.00 0.00 0.00 33 1014.1
20190422072521 63 140 0.0 2.0 0.00 0.00 0.00 33 1014.2
20190422071521 64 140 0.0 1.0 0.00 0.00 0.00 33 1014.3
20190422070521 64 0.0 0.0 0.00 0.00 0.00 32 1014.3
20190422065522 64 0.0 0.0 0.00 0.00 0.00 31 1014.2
20190422064522 64 150 0.0 3.0 0.00 0.00 0.00 31 1014.3
20190422063522 65 199 0.0 3.0 0.00 0.00 0.00 30 1014.2
20190422062516 66 240 0.0 1.0 0.00 0.00 0.00 29 1014.4
20190422061534 67 240 0.0 2.0 0.00 0.00 0.00 28 1014.2
20190422060521 67 240 0.0 4.0 0.00 0.00 0.00 28 1014.2
20190422055522 68 232 0.0 4.0 0.00 0.00 0.00 27 1014.1
20190422054522 68 229 0.0 4.0 0.00 0.00 0.00 25 1014.1
20190422053522 69 228 1.0 5.0 0.00 0.00 0.00 24 1014.2
20190422052522 69 229 0.0 4.0 0.00 0.00 0.00 23 1014.4
20190422051517 70 229 1.0 7.0 0.00 0.00 0.00 22 1014.2
20190422050522 70 238 1.0 6.0 0.00 0.00 0.00 21 1014.2
20190422045522 71 242 1.0 5.0 0.00 0.00 0.00 21 1014.0
20190422044522 72 245 1.0 6.0 0.00 0.00 0.00 20 1013.9
20190422043522 72 244 3.0 10.0 0.00 0.00 0.00 20 1013.9
20190422042521 73 230 3.0 9.0 0.00 0.00 0.00 19 1013.5
20190422041517 73 232 3.0 10.0 0.00 0.00 0.00 19 1013.4
20190422040517 73 239 3.0 9.0 0.00 0.00 0.00 18 1013.4
20190422035522 74 241 2.0 7.0 0.00 0.00 0.00 18 1013.3
20190422034521 74 236 5.0 10.0 0.00 0.00 0.00 17 1013.1
20190422033521 75 241 4.0 8.0 0.00 0.00 0.00 17 1012.8
20190422032522 75 236 5.0 10.0 0.00 0.00 0.00 17 1012.6
20190422031521 76 244 3.0 9.0 0.00 0.00 0.00 16 1012.2
20190422030516 76 243 3.0 12.0 0.00 0.00 0.00 16 1012.0
20190422025521 77 246 4.0 11.0 0.00 0.00 0.00 16 1011.8
20190422024521 77 245 4.0 14.0 0.00 0.00 0.00 16 1011.6
20190422023521 77 242 5.0 12.0 0.00 0.00 0.00 15 1011.3
20190422022521 78 238 4.0 11.0 0.00 0.00 0.00 15 1011.0
20190422021521 78 246 5.0 13.0 0.00 0.00 0.00 14 1010.6
20190422020522 79 232 6.0 15.0 0.00 0.00 0.00 14 1010.3
20190422015516 80 238 6.0 16.0 0.00 0.00 0.00 13 1010.2
20190422014521 80 238 4.0 10.0 0.00 0.00 0.00 15 1010.2
20190422013522 81 225 8.0 17.0 0.00 0.00 0.00 14 1010.0
20190422012521 81 236 7.0 13.0 0.00 0.00 0.00 13 1010.1
20190422011522 82 217 8.0 17.0 0.00 0.00 0.00 13 1010.0
20190422010521 83 214 7.0 14.0 0.00 0.00 0.00 13 1010.1
20190422005516 83 230 6.0 16.0 0.00 0.00 0.00 12 1010.1
20190422004516 83 228 7.0 18.0 0.00 0.00 0.00 12 1010.3
20190422003521 84 236 6.0 17.0 0.00 0.00 0.00 11 1010.2
20190422002522 84 224 8.0 18.0 0.00 0.00 0.00 11 1010.2
20190422001521 84 230 6.0 18.0 0.00 0.00 0.00 10 1010.2
20190422000521 85 229 10.0 19.0 0.00 0.00 0.00 9 1010.2
20190421235525 85 226 8.0 17.0 0.00 0.00 0.00 9 1010.1
20190421234516 85 234 10.0 19.0 0.00 0.00 0.00 10 1010.1
20190421233516 85 250 7.0 16.0 0.00 0.00 0.00 10 1010.1
20190421232522 85 239 8.0 22.0 0.00 0.00 0.00 10 1010.1
20190421231521 86 230 10.0 22.0 0.00 0.00 0.00 10 1010.1
20190421230521 86 251 6.0 15.0 0.00 0.00 0.00 10 1010.2
20190421225519 86 236 8.0 18.0 0.00 0.00 0.00 9 1010.2
20190421224522 86 255 7.0 20.0 0.00 0.00 0.00 9 1010.1
20190421223516 86 235 7.0 20.0 0.00 0.00 0.00 9 1010.4
20190421222521 86 250 7.0 16.0 0.00 0.00 0.00 9 1010.4
20190421221522 86 231 10.0 22.0 0.00 0.00 0.00 9 1010.6
20190421220522 86 221 7.0 13.0 0.00 0.00 0.00 9 1010.6
20190421215521 86 226 8.0 16.0 0.00 0.00 0.00 9 1010.8
20190421214521 87 219 9.0 18.0 0.00 0.00 0.00 9 1011.0
20190421213522 86 218 5.0 15.0 0.00 0.00 0.00 10 1011.1
20190421212516 86 214 9.0 17.0 0.00 0.00 0.00 9 1011.2
20190421211522 86 222 8.0 15.0 0.00 0.00 0.00 10 1011.4
20190421210522 86 244 8.0 21.0 0.00 0.00 0.00 11 1011.4
20190421205521 86 240 7.0 17.0 0.00 0.00 0.00 10 1011.7
20190421204523 86 227 7.0 17.0 0.00 0.00 0.00 11 1011.8
20190421203521 86 216 7.0 15.0 0.00 0.00 0.00 11 1011.9
20190421202517 86 214 7.0 16.0 0.00 0.00 0.00 10 1012.1
20190421201516 86 215 10.0 25.0 0.00 0.00 0.00 11 1012.1
20190421200521 85 215 6.0 17.0 0.00 0.00 0.00 12 1012.1
20190421195521 85 226 8.0 19.0 0.00 0.00 0.00 12 1012.3
20190421194521 85 227 5.0 16.0 0.00 0.00 0.00 12 1012.1
20190421193522 84 235 4.0 18.0 0.00 0.00 0.00 13 1012.4
20190421192521 84 245 6.0 16.0 0.00 0.00 0.00 14 1012.5
20190421191532 84 239 7.0 16.0 0.00 0.00 0.00 14 1012.5
20190421190521 83 237 7.0 18.0 0.00 0.00 0.00 14 1012.6
20190421185521 83 231 6.0 14.0 0.00 0.00 0.00 16 1012.8
20190421184521 83 239 5.0 18.0 0.00 0.00 0.00 17 1013.1
20190421183522 82 270 3.0 15.0 0.00 0.00 0.00 17 1013.2
20190421182521 82 230 5.0 14.0 0.00 0.00 0.00 18 1013.3
20190421181521 82 199 4.0 9.0 0.00 0.00 0.00 18 1013.5
20190421180516 81 232 4.0 10.0 0.00 0.00 0.00 19 1013.5
20190421175521 80 230 2.0 10.0 0.00 0.00 0.00 20 1013.9
20190421174521 80 244 1.0 9.0 0.00 0.00 0.00 21 1014.0
20190421173521 79 229 5.0 11.0 0.00 0.00 0.00 20 1014.2
20190421172521 79 232 5.0 14.0 0.00 0.00 0.00 20 1014.4
20190421171521 79 216 3.0 9.0 0.00 0.00 0.00 20 1014.5
20190421170516 78 240 1.0 7.0 0.00 0.00 0.00 21 1014.5